Time;durP1;ratioP1;P1;durP2;ratioP2;P2;SDS_P1;SDS_P2;PMS_P1;PMS_P2;Temp;Humidity;BMP_temperature;BMP_pressure;BME280_temperature;BME280_humidity;BME280_pressure;Samples;Min_cycle;Max_cycle;Signal;HPM_P1;HPM_P2
2023/08/11 00:03:14;;;;;;;13.45;7.75;;;12.40;99.90;;;;;;8376291;28;20052;-79
2023/08/11 00:07:15;;;;;;;14.07;8.27;;;12.40;99.90;;;;;;8357294;28;20035;-78
2023/08/11 00:11:15;;;;;;;8.70;7.10;;;12.40;99.90;;;;;;8351468;28;20657;-79
2023/08/11 00:15:18;;;;;;;10.80;7.28;;;12.30;99.90;;;;;;8387570;22;20052;-79
2023/08/11 00:19:18;;;;;;;11.35;6.93;;;12.10;99.90;;;;;;8406842;28;20052;-79
2023/08/11 00:23:19;;;;;;;9.75;7.40;;;12.20;99.90;;;;;;8389937;28;20027;-79
2023/08/11 00:27:19;;;;;;;10.63;7.95;;;12.10;99.90;;;;;;8382524;28;20108;-79
2023/08/11 00:31:20;;;;;;;9.27;6.82;;;12.00;99.90;;;;;;8375467;28;20426;-80
2023/08/11 00:35:24;;;;;;;8.18;6.88;;;11.90;99.90;;;;;;8375323;28;20595;-80
2023/08/11 00:39:24;;;;;;;10.57;7.10;;;11.90;99.90;;;;;;8389866;28;20081;-79
2023/08/11 00:43:25;;;;;;;10.45;6.35;;;11.80;99.90;;;;;;8368662;28;20108;-79
2023/08/11 00:47:26;;;;;;;10.48;8.23;;;11.70;99.90;;;;;;8382433;28;20020;-79
2023/08/11 00:51:28;;;;;;;8.93;7.57;;;11.70;99.90;;;;;;8375975;28;20686;-80
2023/08/11 00:55:29;;;;;;;12.18;7.85;;;11.60;99.90;;;;;;8382374;28;20078;-78
2023/08/11 00:59:30;;;;;;;14.82;7.90;;;11.60;99.90;;;;;;8395128;28;20107;-79
2023/08/11 01:03:30;;;;;;;11.57;7.63;;;11.70;99.90;;;;;;8374048;28;20029;-80
2023/08/11 01:07:41;;;;;;;11.00;7.95;;;11.70;99.90;;;;;;8380534;28;20028;-80
2023/08/11 01:11:52;;;;;;;11.32;7.15;;;11.70;99.90;;;;;;8371376;28;20071;-80
2023/08/11 01:16:00;;;;;;;11.65;8.27;;;11.60;99.90;;;;;;8395657;28;20067;-80
2023/08/11 01:20:07;;;;;;;14.05;8.13;;;11.50;99.90;;;;;;8403351;28;20503;-79
2023/08/11 01:24:08;;;;;;;9.45;7.18;;;11.60;99.90;;;;;;8406762;28;20074;-80
2023/08/11 01:28:08;;;;;;;12.65;7.57;;;11.40;99.90;;;;;;8380478;28;20488;-79
2023/08/11 01:32:09;;;;;;;11.63;7.80;;;11.30;99.90;;;;;;8400757;28;20020;-80
2023/08/11 01:36:10;;;;;;;10.50;8.00;;;11.40;99.90;;;;;;8380973;28;20131;-81
2023/08/11 01:40:10;;;;;;;11.38;7.97;;;11.30;99.90;;;;;;8394566;28;20031;-80
2023/08/11 01:44:12;;;;;;;11.55;8.40;;;11.20;99.90;;;;;;8380046;28;20025;-80
2023/08/11 01:48:14;;;;;;;16.58;9.90;;;11.20;99.90;;;;;;8378796;28;20024;-79
2023/08/11 01:52:15;;;;;;;11.55;7.95;;;11.30;99.90;;;;;;8379732;28;20101;-80
2023/08/11 01:56:17;;;;;;;11.32;7.07;;;11.20;99.90;;;;;;8393894;28;20115;-80
2023/08/11 02:00:20;;;;;;;9.98;7.65;;;11.10;99.90;;;;;;8401684;28;20028;-80
2023/08/11 02:04:21;;;;;;;12.00;7.68;;;11.10;99.90;;;;;;8397166;28;20488;-80
2023/08/11 02:08:21;;;;;;;13.25;8.18;;;11.20;99.90;;;;;;8397523;28;20066;-80
2023/08/11 02:12:22;;;;;;;14.32;8.18;;;11.10;99.90;;;;;;8372777;28;20163;-80
2023/08/11 02:16:23;;;;;;;12.88;8.27;;;11.10;99.90;;;;;;8404891;28;20024;-80
2023/08/11 02:20:24;;;;;;;11.00;7.53;;;11.20;99.90;;;;;;8379909;28;20212;-80
2023/08/11 02:24:25;;;;;;;11.60;6.15;;;11.30;99.90;;;;;;8393707;28;20027;-80
2023/08/11 02:28:25;;;;;;;12.15;6.80;;;11.30;99.90;;;;;;8379507;28;20031;-77
2023/08/11 02:32:26;;;;;;;9.57;6.32;;;11.10;99.90;;;;;;8411286;28;20153;-79
2023/08/11 02:36:26;;;;;;;10.30;7.00;;;10.90;99.90;;;;;;8379081;28;20394;-81
2023/08/11 02:40:27;;;;;;;12.27;8.00;;;10.70;99.90;;;;;;8379674;28;20056;-79
2023/08/11 02:44:28;;;;;;;8.57;7.10;;;10.60;99.90;;;;;;8406314;28;20028;-79
2023/08/11 02:48:28;;;;;;;14.25;9.02;;;10.50;99.90;;;;;;8403483;28;20101;-80
2023/08/11 02:52:29;;;;;;;13.57;8.52;;;10.60;99.90;;;;;;8378179;28;20025;-79
2023/08/11 02:56:29;;;;;;;11.73;8.63;;;10.70;99.90;;;;;;8385833;28;20020;-78
2023/08/11 03:00:30;;;;;;;14.07;8.85;;;10.70;99.90;;;;;;8378384;28;20035;-79
2023/08/11 03:04:30;;;;;;;11.85;8.60;;;10.70;99.90;;;;;;8377046;28;20020;-79
2023/08/11 03:08:31;;;;;;;9.73;7.40;;;10.70;99.90;;;;;;8372146;28;20039;-79
2023/08/11 03:12:32;;;;;;;10.57;7.85;;;10.80;99.90;;;;;;8374355;28;20085;-78
2023/08/11 03:16:33;;;;;;;10.02;7.90;;;10.90;99.90;;;;;;8384842;28;20495;-80
2023/08/11 03:20:33;;;;;;;11.68;7.88;;;10.80;99.90;;;;;;8385525;28;20039;-80
2023/08/11 03:24:34;;;;;;;12.50;7.82;;;10.70;99.90;;;;;;8411584;28;20055;-79
2023/08/11 03:28:34;;;;;;;10.35;8.02;;;10.60;99.90;;;;;;8388771;28;20021;-79
2023/08/11 03:32:35;;;;;;;13.38;6.93;;;10.50;99.90;;;;;;8399902;28;20459;-78
2023/08/11 03:36:35;;;;;;;14.07;9.07;;;10.50;99.90;;;;;;8375602;28;20396;-77
2023/08/11 03:40:36;;;;;;;13.60;8.75;;;10.40;99.90;;;;;;8390342;28;20035;-78
2023/08/11 03:44:36;;;;;;;13.73;8.05;;;10.50;99.90;;;;;;8385635;28;20024;-78
2023/08/11 03:48:37;;;;;;;12.70;8.93;;;10.50;99.90;;;;;;8382823;28;22058;-79
2023/08/11 03:52:38;;;;;;;13.48;8.02;;;10.60;99.90;;;;;;8382766;28;20111;-79
2023/08/11 03:56:39;;;;;;;11.93;8.85;;;10.60;99.90;;;;;;8399428;28;20012;-78
2023/08/11 04:00:40;;;;;;;13.45;8.35;;;10.50;99.90;;;;;;8389042;28;20020;-78
2023/08/11 04:04:40;;;;;;;11.18;7.85;;;10.30;99.90;;;;;;8377806;28;20082;-78
2023/08/11 04:08:41;;;;;;;10.35;7.68;;;10.30;99.90;;;;;;8374943;28;20488;-78
2023/08/11 04:12:42;;;;;;;15.05;7.78;;;10.30;99.90;;;;;;8391503;28;20090;-79
2023/08/11 04:16:43;;;;;;;12.48;8.55;;;10.30;99.90;;;;;;8370872;28;20059;-78
2023/08/11 04:20:44;;;;;;;14.45;8.63;;;10.30;99.90;;;;;;8366612;28;20493;-78
2023/08/11 04:24:45;;;;;;;13.68;8.88;;;10.40;99.90;;;;;;8374150;28;20052;-78
2023/08/11 04:28:46;;;;;;;17.63;9.88;;;10.50;99.90;;;;;;8399672;28;20031;-78
2023/08/11 04:32:47;;;;;;;12.98;9.48;;;10.60;99.90;;;;;;8378455;28;20024;-77
2023/08/11 04:36:48;;;;;;;13.30;9.65;;;10.70;99.90;;;;;;8377543;28;20109;-78
2023/08/11 04:40:52;;;;;;;12.68;8.95;;;10.70;99.90;;;;;;8375327;28;20025;-78
2023/08/11 04:44:53;;;;;;;9.90;8.02;;;10.90;99.90;;;;;;8392449;28;20079;-78
2023/08/11 04:48:54;;;;;;;11.00;8.23;;;11.10;99.90;;;;;;8405368;28;20017;-78
2023/08/11 04:52:55;;;;;;;12.68;7.97;;;11.10;99.90;;;;;;8380278;28;20074;-78
2023/08/11 04:56:55;;;;;;;9.68;7.60;;;11.20;99.90;;;;;;8380158;28;20021;-77
2023/08/11 05:00:56;;;;;;;9.32;7.38;;;11.40;99.90;;;;;;8387141;28;20043;-77
2023/08/11 05:04:56;;;;;;;8.80;7.82;;;11.40;99.90;;;;;;8378181;28;20023;-78
2023/08/11 05:08:57;;;;;;;10.27;8.23;;;11.70;99.90;;;;;;8375744;28;20032;-78
2023/08/11 05:12:58;;;;;;;9.55;7.95;;;11.90;99.90;;;;;;8369749;28;20027;-78
2023/08/11 05:16:59;;;;;;;10.38;7.00;;;12.20;99.90;;;;;;8376075;28;20032;-78
2023/08/11 05:21:00;;;;;;;9.00;6.90;;;12.40;99.90;;;;;;8367523;28;20091;-78
2023/08/11 05:25:05;;;;;;;13.15;7.30;;;12.80;99.90;;;;;;8373537;28;20021;-78
2023/08/11 05:29:06;;;;;;;9.70;6.05;;;12.70;99.90;;;;;;8369435;28;20021;-79
2023/08/11 05:33:06;;;;;;;8.93;7.25;;;13.00;99.90;;;;;;8375457;28;20032;-78
2023/08/11 05:37:07;;;;;;;9.20;7.43;;;13.00;99.90;;;;;;8387018;28;20024;-78
2023/08/11 05:41:09;;;;;;;9.57;7.38;;;13.00;99.90;;;;;;8393548;28;20029;-78
2023/08/11 05:45:10;;;;;;;7.63;6.68;;;13.20;99.90;;;;;;8377850;28;20438;-79
2023/08/11 05:49:10;;;;;;;8.27;6.50;;;13.40;99.90;;;;;;8373021;28;20067;-78
2023/08/11 05:53:11;;;;;;;9.27;6.95;;;13.40;99.90;;;;;;8371674;28;20027;-78
2023/08/11 05:57:12;;;;;;;12.40;6.80;;;13.80;99.90;;;;;;8370900;28;20017;-79
2023/08/11 06:01:12;;;;;;;6.25;5.65;;;15.20;99.90;;;;;;8391145;28;20662;-79
2023/08/11 06:05:13;;;;;;;5.50;4.72;;;16.60;99.90;;;;;;8374531;28;20511;-79
2023/08/11 06:09:13;;;;;;;6.50;5.38;;;18.10;99.90;;;;;;8370385;28;20029;-79
2023/08/11 06:13:14;;;;;;;5.82;4.63;;;19.30;99.90;;;;;;8388858;28;20044;-79
2023/08/11 06:17:15;;;;;;;5.47;4.20;;;20.80;99.90;;;;;;8375362;28;20419;-78
2023/08/11 06:21:17;;;;;;;6.05;4.50;;;21.40;99.90;;;;;;8377228;28;20031;-79
2023/08/11 06:25:18;;;;;;;5.20;4.30;;;21.40;99.90;;;;;;8377174;28;20499;-79
2023/08/11 06:29:18;;;;;;;4.65;4.15;;;22.00;99.90;;;;;;8376573;28;20024;-79
2023/08/11 06:33:20;;;;;;;5.78;4.47;;;22.60;99.90;;;;;;8376408;28;20493;-79
2023/08/11 06:37:21;;;;;;;9.07;4.53;;;22.70;99.90;;;;;;8392352;28;20431;-79
2023/08/11 06:41:21;;;;;;;5.57;4.32;;;23.10;99.90;;;;;;8375874;28;20024;-79
2023/08/11 06:45:22;;;;;;;8.00;4.22;;;24.10;99.90;;;;;;8382688;28;20040;-80
2023/08/11 06:49:23;;;;;;;5.93;4.57;;;24.50;99.90;;;;;;8375568;28;20091;-80
2023/08/11 06:53:23;;;;;;;9.68;5.03;;;25.10;99.90;;;;;;8368791;28;20094;-79
2023/08/11 06:57:24;;;;;;;5.80;4.80;;;25.30;99.90;;;;;;8373721;28;20032;-80
2023/08/11 07:01:25;;;;;;;6.30;4.50;;;25.30;99.90;;;;;;8392623;28;20029;-80
2023/08/11 07:05:26;;;;;;;7.13;4.75;;;25.80;99.90;;;;;;8367359;28;20492;-80
2023/08/11 07:09:27;;;;;;;7.13;4.35;;;25.60;99.90;;;;;;8368486;28;20036;-79
2023/08/11 07:13:27;;;;;;;6.65;4.70;;;25.40;99.90;;;;;;8363377;28;20115;-80
2023/08/11 07:17:28;;;;;;;5.25;4.35;;;25.60;99.90;;;;;;8374221;28;20028;-79
2023/08/11 07:21:28;;;;;;;5.53;4.25;;;25.80;99.90;;;;;;8374734;28;20032;-80
2023/08/11 07:25:29;;;;;;;5.20;4.47;;;26.40;99.90;;;;;;8375057;28;20032;-79
2023/08/11 07:29:29;;;;;;;4.53;3.88;;;26.50;99.90;;;;;;8374708;28;20020;-80
2023/08/11 07:33:30;;;;;;;4.50;3.70;;;27.00;99.90;;;;;;8374416;28;20158;-79
2023/08/11 07:37:31;;;;;;;4.95;4.00;;;27.20;99.90;;;;;;8392652;28;20032;-80
2023/08/11 07:41:31;;;;;;;4.85;3.70;;;26.40;99.90;;;;;;8390725;28;20112;-80
2023/08/11 07:45:33;;;;;;;4.43;3.72;;;26.70;99.90;;;;;;8391628;28;20031;-80
2023/08/11 07:49:34;;;;;;;4.15;3.60;;;27.10;99.90;;;;;;8373253;28;20058;-79
2023/08/11 07:53:36;;;;;;;5.18;3.83;;;27.30;99.90;;;;;;8378897;28;20033;-80
2023/08/11 07:57:37;;;;;;;5.15;4.22;;;27.40;99.90;;;;;;8382649;28;20427;-79
2023/08/11 08:01:38;;;;;;;6.40;3.60;;;27.40;99.90;;;;;;8376601;28;20077;-80
2023/08/11 08:05:38;;;;;;;4.55;3.58;;;27.30;99.90;;;;;;8373259;28;20423;-80
2023/08/11 08:09:39;;;;;;;4.07;3.58;;;27.50;99.90;;;;;;8366677;28;20033;-80
2023/08/11 08:13:39;;;;;;;4.22;3.83;;;27.80;99.90;;;;;;8390111;28;20115;-80
2023/08/11 08:17:40;;;;;;;5.40;3.40;;;28.30;99.90;;;;;;8386710;28;20029;-80
2023/08/11 08:21:41;;;;;;;4.13;3.58;;;28.10;99.90;;;;;;8373729;28;20408;-80
2023/08/11 08:25:42;;;;;;;5.22;3.20;;;27.70;99.90;;;;;;8398660;28;20020;-80
2023/08/11 08:29:43;;;;;;;4.65;3.30;;;27.80;99.90;;;;;;8380673;28;20111;-80
2023/08/11 08:33:43;;;;;;;3.92;3.25;;;27.70;99.90;;;;;;8380035;28;20583;-80
2023/08/11 08:37:44;;;;;;;4.75;3.50;;;28.00;99.90;;;;;;8373266;28;20024;-80
2023/08/11 08:41:47;;;;;;;3.38;2.70;;;28.20;99.90;;;;;;8393077;28;20021;-79
2023/08/11 08:45:50;;;;;;;3.20;2.90;;;28.40;99.90;;;;;;8386076;28;20492;-80
2023/08/11 08:49:51;;;;;;;6.78;3.60;;;28.30;99.90;;;;;;8376317;28;20108;-80
2023/08/11 08:53:52;;;;;;;3.67;2.88;;;28.40;99.90;;;;;;8361133;28;20447;-81
2023/08/11 08:57:54;;;;;;;5.18;3.00;;;28.40;99.90;;;;;;8400108;28;20069;-80
2023/08/11 09:01:56;;;;;;;3.25;2.85;;;28.50;99.90;;;;;;8373785;28;20500;-79
2023/08/11 09:05:57;;;;;;;7.22;2.60;;;28.60;99.90;;;;;;8370461;28;20032;-80
2023/08/11 09:09:58;;;;;;;4.07;3.08;;;29.00;99.90;;;;;;8366291;28;20082;-79
2023/08/11 09:14:04;;;;;;;5.57;2.78;;;29.20;99.90;;;;;;8379276;28;20041;-80
2023/08/11 09:18:05;;;;;;;3.40;3.00;;;29.40;99.90;;;;;;8397491;28;20017;-81
2023/08/11 09:22:10;;;;;;;3.90;2.78;;;29.00;99.90;;;;;;8379721;28;20032;-80
2023/08/11 09:26:11;;;;;;;3.72;3.17;;;29.10;99.90;;;;;;8397161;28;20020;-80
2023/08/11 09:30:12;;;;;;;4.05;3.00;;;29.30;99.90;;;;;;8396985;28;20068;-80
2023/08/11 09:34:17;;;;;;;3.85;2.63;;;29.60;99.90;;;;;;8402832;28;20583;-81
2023/08/11 09:38:17;;;;;;;5.65;3.20;;;29.50;99.90;;;;;;8382737;28;20727;-81
2023/08/11 09:42:18;;;;;;;4.13;3.03;;;29.70;99.90;;;;;;8381364;28;20029;-80
2023/08/11 09:46:19;;;;;;;7.70;2.90;;;29.80;99.90;;;;;;8378037;28;20024;-80
2023/08/11 09:50:22;;;;;;;3.92;3.17;;;29.70;99.90;;;;;;8379116;28;20042;-80
2023/08/11 09:54:23;;;;;;;4.93;3.40;;;29.40;99.90;;;;;;8378515;28;20021;-80
2023/08/11 09:58:25;;;;;;;5.10;3.10;;;29.20;99.90;;;;;;8396094;28;20240;-80
2023/08/11 10:02:30;;;;;;;3.20;2.90;;;29.60;99.90;;;;;;8378328;28;20028;-80
2023/08/11 10:06:32;;;;;;;0.80;0.57;;;29.50;99.90;;;;;;8377989;28;20492;-79
2023/08/11 10:10:37;;;;;;;0.25;0.25;;;29.30;99.90;;;;;;8396801;28;20025;-81
2023/08/11 10:14:39;;;;;;;0.77;0.57;;;29.30;99.90;;;;;;8365508;28;20043;-80
2023/08/11 10:18:43;;;;;;;0.17;0.17;;;29.20;99.90;;;;;;8378063;28;20082;-81
2023/08/11 10:22:44;;;;;;;0.25;0.25;;;29.10;99.90;;;;;;8396885;28;20043;-81
2023/08/11 10:26:45;;;;;;;0.50;0.38;;;29.40;99.90;;;;;;8382926;28;20507;-80
2023/08/11 10:30:55;;;;;;;2.22;0.57;;;29.00;99.90;;;;;;8378153;28;20119;-80
2023/08/11 10:34:56;;;;;;;0.90;0.90;;;29.10;99.90;;;;;;8377714;28;20016;-80
2023/08/11 10:39:00;;;;;;;3.63;2.05;;;29.40;99.90;;;;;;8379772;28;20115;-79
2023/08/11 10:43:03;;;;;;;7.40;2.67;;;29.60;99.90;;;;;;8383566;28;20020;-80
2023/08/11 10:47:04;;;;;;;4.00;2.95;;;30.70;99.90;;;;;;8378024;28;20048;-80
2023/08/11 10:51:21;;;;;;;7.53;2.90;;;32.10;98.40;;;;;;8375754;28;20067;-80
2023/08/11 10:55:22;;;;;;;3.10;2.80;;;32.80;96.20;;;;;;8376205;28;20023;-81
2023/08/11 10:59:25;;;;;;;3.08;2.70;;;33.60;98.70;;;;;;8393695;28;20020;-81
2023/08/11 11:03:26;;;;;;;4.72;2.65;;;33.70;93.80;;;;;;8370276;28;20029;-81
2023/08/11 11:07:26;;;;;;;4.93;2.97;;;33.30;93.50;;;;;;8356382;28;20028;-81
2023/08/11 11:11:27;;;;;;;3.22;2.60;;;33.60;93.10;;;;;;8355895;28;20496;-79
2023/08/11 11:15:32;;;;;;;2.63;2.42;;;34.50;92.10;;;;;;8375116;28;20035;-81
2023/08/11 11:19:33;;;;;;;3.55;2.65;;;34.50;92.50;;;;;;8375186;28;20434;-81
2023/08/11 11:23:34;;;;;;;2.90;2.33;;;34.10;91.50;;;;;;8374745;28;20093;-79
2023/08/11 11:27:41;;;;;;;46.53;7.97;;;34.70;87.40;;;;;;8374478;28;20028;-81
2023/08/11 11:31:42;;;;;;;4.80;2.85;;;35.30;86.00;;;;;;8392140;28;20032;-81
2023/08/11 11:35:42;;;;;;;4.05;2.45;;;35.20;84.70;;;;;;8373717;28;20040;-81
2023/08/11 11:39:43;;;;;;;4.70;2.55;;;36.10;77.70;;;;;;8374115;28;20024;-81
2023/08/11 11:43:45;;;;;;;4.28;2.78;;;36.70;83.20;;;;;;8373592;28;20426;-81
2023/08/11 11:47:47;;;;;;;5.05;2.60;;;37.10;75.70;;;;;;8373647;28;20518;-81
2023/08/11 11:51:47;;;;;;;3.17;2.70;;;36.40;75.00;;;;;;8391527;28;20021;-81
2023/08/11 11:55:48;;;;;;;3.13;2.80;;;36.60;72.90;;;;;;8391900;28;20162;-82
2023/08/11 11:59:49;;;;;;;3.78;2.67;;;36.40;73.00;;;;;;8392547;28;20104;-81
2023/08/11 12:03:50;;;;;;;4.60;2.85;;;34.50;84.60;;;;;;8371849;28;20484;-81
2023/08/11 12:07:51;;;;;;;3.03;2.75;;;34.00;86.40;;;;;;8363640;28;20155;-81
2023/08/11 12:11:55;;;;;;;3.95;2.80;;;34.60;79.70;;;;;;8378573;28;20624;-80
2023/08/11 12:15:56;;;;;;;4.30;2.70;;;35.90;76.20;;;;;;8391612;28;20020;-81
2023/08/11 12:19:56;;;;;;;2.75;2.40;;;37.20;75.60;;;;;;8373178;28;20021;-81
2023/08/11 12:23:57;;;;;;;3.40;2.70;;;37.20;76.40;;;;;;8373166;28;20396;-81
2023/08/11 12:27:58;;;;;;;2.95;2.53;;;38.10;70.80;;;;;;8390891;28;20103;-81
2023/08/11 12:31:58;;;;;;;4.80;3.30;;;39.20;66.50;;;;;;8373302;28;20020;-80
2023/08/11 12:35:59;;;;;;;4.03;2.53;;;38.50;64.80;;;;;;8378746;28;20033;-80
2023/08/11 12:39:59;;;;;;;3.83;2.60;;;38.50;65.20;;;;;;8365424;28;20028;-81
2023/08/11 12:44:01;;;;;;;4.03;2.70;;;38.50;61.30;;;;;;8366288;28;20048;-81
2023/08/11 12:48:02;;;;;;;4.45;2.50;;;38.90;63.20;;;;;;8388745;28;20020;-81
2023/08/11 12:52:02;;;;;;;4.80;2.40;;;39.60;59.50;;;;;;8396920;28;20634;-81
2023/08/11 12:56:03;;;;;;;3.20;2.40;;;38.60;65.10;;;;;;8390896;28;20021;-80
2023/08/11 13:00:05;;;;;;;2.45;2.15;;;37.30;64.20;;;;;;8391666;28;20017;-81
2023/08/11 13:04:06;;;;;;;2.25;2.05;;;36.80;66.70;;;;;;8396507;28;20028;-80
2023/08/11 13:08:07;;;;;;;7.20;2.10;;;38.80;57.40;;;;;;8368104;28;20021;-81
2023/08/11 13:12:14;;;;;;;2.97;2.15;;;40.00;57.90;;;;;;8383879;28;20066;-81
2023/08/11 13:16:16;;;;;;;2.03;1.75;;;40.50;56.00;;;;;;8368560;28;20115;-82
2023/08/11 13:20:16;;;;;;;2.53;2.05;;;40.70;55.60;;;;;;8374572;28;20483;-81
2023/08/11 13:24:17;;;;;;;3.30;2.00;;;41.50;55.20;;;;;;8370563;28;20066;-82
2023/08/11 13:28:17;;;;;;;2.22;2.03;;;42.00;54.10;;;;;;8396057;28;20515;-82
2023/08/11 13:32:18;;;;;;;2.58;2.22;;;42.60;49.90;;;;;;8396005;28;20025;-82
2023/08/11 13:36:18;;;;;;;3.45;2.30;;;42.20;51.50;;;;;;8377646;28;20035;-81
2023/08/11 13:40:19;;;;;;;3.05;2.20;;;42.90;48.30;;;;;;8392981;28;20036;-80
2023/08/11 13:44:20;;;;;;;2.75;1.80;;;41.90;49.80;;;;;;8395150;28;20099;-82
2023/08/11 13:48:21;;;;;;;1.90;1.80;;;43.00;46.90;;;;;;8395227;28;20032;-80
2023/08/11 13:52:22;;;;;;;1.70;1.60;;;43.20;46.90;;;;;;8388387;28;20028;-81
2023/08/11 13:56:22;;;;;;;3.33;1.70;;;42.00;47.10;;;;;;8393161;28;20085;-81
2023/08/11 14:00:23;;;;;;;3.30;1.90;;;42.60;46.60;;;;;;8375705;28;20043;-81
2023/08/11 14:04:23;;;;;;;1.67;1.58;;;43.00;45.10;;;;;;8369185;28;20025;-81
2023/08/11 14:08:24;;;;;;;2.80;1.85;;;43.00;44.20;;;;;;8393095;28;20028;-81
2023/08/11 14:12:25;;;;;;;3.55;1.83;;;43.30;44.80;;;;;;8369466;28;20035;-81
2023/08/11 14:16:25;;;;;;;2.00;1.77;;;42.90;43.30;;;;;;8376656;28;20497;-80
2023/08/11 14:20:26;;;;;;;4.30;1.95;;;43.20;46.80;;;;;;8395058;28;20025;-82
2023/08/11 14:24:26;;;;;;;2.50;2.10;;;44.60;43.50;;;;;;8380035;28;20021;-81
2023/08/11 14:28:27;;;;;;;2.25;2.05;;;44.20;42.30;;;;;;8377989;28;20026;-81
2023/08/11 14:32:27;;;;;;;3.83;2.40;;;44.70;42.30;;;;;;8374024;28;20401;-81
2023/08/11 14:36:28;;;;;;;2.25;1.88;;;45.20;41.30;;;;;;8372428;28;20028;-81
2023/08/11 14:40:28;;;;;;;2.63;1.73;;;44.40;41.90;;;;;;8380314;28;20033;-81
2023/08/11 14:44:29;;;;;;;2.10;1.90;;;43.40;42.00;;;;;;8365621;28;20040;-81
2023/08/11 14:48:29;;;;;;;2.15;1.95;;;43.10;42.60;;;;;;8375654;28;20048;-81
2023/08/11 14:52:30;;;;;;;3.05;2.05;;;43.20;43.20;;;;;;8388279;28;20055;-81
2023/08/11 14:56:30;;;;;;;2.38;2.08;;;43.50;40.60;;;;;;8369203;28;20025;-81
2023/08/11 15:00:31;;;;;;;2.67;1.90;;;43.40;42.80;;;;;;8367382;28;20031;-81
2023/08/11 15:04:32;;;;;;;3.03;2.03;;;43.40;41.50;;;;;;8386069;28;20028;-81
2023/08/11 15:08:32;;;;;;;3.95;1.92;;;43.30;45.00;;;;;;8368486;28;20641;-81
2023/08/11 15:12:33;;;;;;;2.72;2.10;;;42.70;42.40;;;;;;8360903;28;20438;-81
2023/08/11 15:16:33;;;;;;;2.20;1.70;;;43.40;43.20;;;;;;8369072;28;20064;-81
2023/08/11 15:20:34;;;;;;;2.20;2.00;;;43.90;41.20;;;;;;8369600;28;20033;-81
2023/08/11 15:24:34;;;;;;;3.20;2.08;;;43.50;43.60;;;;;;8374257;28;20057;-82
2023/08/11 15:28:35;;;;;;;2.10;1.90;;;43.30;43.30;;;;;;8372680;28;20032;-81
2023/08/11 15:32:36;;;;;;;2.00;1.83;;;41.30;45.10;;;;;;8372881;28;20446;-80
2023/08/11 15:36:36;;;;;;;2.42;1.98;;;40.10;47.90;;;;;;8390740;28;20078;-80
2023/08/11 15:40:37;;;;;;;2.47;2.25;;;40.90;46.70;;;;;;8366200;28;20032;-81
2023/08/11 15:44:38;;;;;;;2.13;1.80;;;41.80;47.50;;;;;;8367601;28;20150;-80
2023/08/11 15:48:38;;;;;;;2.75;2.10;;;41.90;47.00;;;;;;8370880;28;20068;-81
2023/08/11 15:52:39;;;;;;;3.20;2.00;;;40.40;44.90;;;;;;8370478;28;20029;-81
2023/08/11 15:56:39;;;;;;;3.28;1.80;;;37.10;51.80;;;;;;8369474;28;20040;-82
2023/08/11 16:00:40;;;;;;;3.38;2.05;;;34.10;58.60;;;;;;8390922;28;20024;-80
2023/08/11 16:04:40;;;;;;;2.67;2.10;;;32.60;62.10;;;;;;8373974;28;20033;-81
2023/08/11 16:08:41;;;;;;;2.85;2.22;;;31.50;61.30;;;;;;8376700;28;20028;-81
2023/08/11 16:12:41;;;;;;;3.83;2.15;;;30.90;68.60;;;;;;8374791;28;20056;-80
2023/08/11 16:16:42;;;;;;;2.65;2.13;;;30.40;71.70;;;;;;8374273;28;20033;-81
2023/08/11 16:20:42;;;;;;;2.88;2.20;;;30.10;67.80;;;;;;8380665;28;20037;-79
2023/08/11 16:24:43;;;;;;;4.07;1.80;;;30.30;63.90;;;;;;8376618;28;20025;-81
2023/08/11 16:28:44;;;;;;;4.20;2.42;;;30.50;65.00;;;;;;8380942;28;20032;-79
2023/08/11 16:32:44;;;;;;;2.67;2.10;;;30.20;67.50;;;;;;8374297;28;20040;-80
2023/08/11 16:36:45;;;;;;;2.28;1.80;;;30.10;67.50;;;;;;8376755;28;20025;-81
2023/08/11 16:40:46;;;;;;;2.78;2.13;;;30.50;62.70;;;;;;8377773;28;20115;-80
2023/08/11 16:44:46;;;;;;;2.50;2.20;;;30.30;63.10;;;;;;8394581;28;20035;-80
2023/08/11 16:48:47;;;;;;;2.50;2.30;;;29.80;70.60;;;;;;8386119;28;20078;-80
2023/08/11 16:52:52;;;;;;;3.25;1.95;;;29.30;70.00;;;;;;8377676;28;20037;-80
2023/08/11 16:56:53;;;;;;;4.90;1.90;;;28.90;75.80;;;;;;8373099;28;20112;-79
2023/08/11 17:00:56;;;;;;;4.50;2.10;;;28.60;77.50;;;;;;8374693;28;20031;-80
2023/08/11 17:04:56;;;;;;;2.38;2.03;;;28.70;72.00;;;;;;8375658;28;20470;-80
2023/08/11 17:08:57;;;;;;;3.13;2.20;;;28.40;78.40;;;;;;8373439;28;20035;-80
2023/08/11 17:12:57;;;;;;;10.20;2.70;;;28.00;81.20;;;;;;8369183;28;20563;-80
2023/08/11 17:16:58;;;;;;;4.93;2.17;;;27.70;80.00;;;;;;8373644;28;20036;-80
2023/08/11 17:20:58;;;;;;;4.25;2.40;;;27.30;83.80;;;;;;8370308;28;20123;-79
2023/08/11 17:24:59;;;;;;;4.78;2.72;;;27.00;83.90;;;;;;8370637;28;20028;-80
2023/08/11 17:29:00;;;;;;;5.30;2.08;;;26.80;90.70;;;;;;8372847;28;20028;-80
2023/08/11 17:33:00;;;;;;;2.55;2.10;;;26.60;90.50;;;;;;8371677;28;20032;-79
2023/08/11 17:37:02;;;;;;;2.78;2.17;;;26.10;90.60;;;;;;8371941;28;20035;-81
2023/08/11 17:41:02;;;;;;;2.85;1.70;;;26.00;92.30;;;;;;8392739;28;20020;-82
2023/08/11 17:45:03;;;;;;;3.78;2.83;;;25.70;92.10;;;;;;8369644;28;20653;-81
2023/08/11 17:49:04;;;;;;;4.68;2.30;;;26.00;92.10;;;;;;8370897;28;20021;-81
2023/08/11 17:53:05;;;;;;;3.13;2.30;;;26.00;94.00;;;;;;8376685;28;20036;-80
2023/08/11 17:57:05;;;;;;;6.18;2.70;;;25.60;97.20;;;;;;8400439;28;20087;-79
2023/08/11 18:01:06;;;;;;;3.83;2.92;;;25.50;96.70;;;;;;8376602;28;20749;-80
2023/08/11 18:05:07;;;;;;;4.25;2.85;;;25.30;99.40;;;;;;8370195;28;20059;-82
2023/08/11 18:09:07;;;;;;;4.05;2.70;;;25.10;99.90;;;;;;8388645;28;20408;-80
2023/08/11 18:13:08;;;;;;;3.13;2.83;;;25.00;99.90;;;;;;8370768;28;20539;-79
2023/08/11 18:17:08;;;;;;;5.35;2.80;;;24.70;99.90;;;;;;8373000;28;20025;-80
2023/08/11 18:21:09;;;;;;;7.95;2.95;;;24.50;99.90;;;;;;8376505;28;20503;-80
2023/08/11 18:25:10;;;;;;;8.38;3.20;;;24.40;99.90;;;;;;8395516;28;20027;-81
2023/08/11 18:29:10;;;;;;;5.32;3.10;;;24.10;99.90;;;;;;8376399;28;20040;-81
2023/08/11 18:33:11;;;;;;;16.75;3.85;;;23.90;99.90;;;;;;8388499;28;20485;-82
2023/08/11 18:37:11;;;;;;;5.68;4.40;;;23.80;99.90;;;;;;8365909;28;20400;-82
2023/08/11 18:41:12;;;;;;;11.60;4.57;;;24.00;99.90;;;;;;8371621;28;20028;-80
2023/08/11 18:45:14;;;;;;;7.10;4.15;;;24.00;99.90;;;;;;8369804;28;20025;-80
2023/08/11 18:49:14;;;;;;;9.60;4.28;;;23.70;99.90;;;;;;8375311;28;20035;-81
2023/08/11 18:53:15;;;;;;;6.78;4.53;;;23.70;99.90;;;;;;8391816;28;20494;-80
2023/08/11 18:57:15;;;;;;;8.05;4.75;;;23.50;99.90;;;;;;8375062;28;20040;-81
2023/08/11 19:01:16;;;;;;;6.63;4.80;;;23.20;99.90;;;;;;8385480;28;20037;-81
2023/08/11 19:05:16;;;;;;;7.20;4.18;;;22.80;99.90;;;;;;8367359;28;20029;-82
2023/08/11 19:09:17;;;;;;;6.53;4.20;;;22.50;99.90;;;;;;8370534;28;20496;-81
2023/08/11 19:13:18;;;;;;;12.68;4.85;;;22.30;99.90;;;;;;8381794;28;20029;-81
2023/08/11 19:17:18;;;;;;;6.10;4.57;;;22.10;99.90;;;;;;8374612;28;20488;-81
2023/08/11 19:21:18;;;;;;;5.70;4.68;;;22.00;99.90;;;;;;8366861;28;20028;-79
2023/08/11 19:25:19;;;;;;;7.57;5.28;;;21.90;99.90;;;;;;8374786;28;20122;-82
2023/08/11 19:29:20;;;;;;;7.70;4.43;;;21.70;99.90;;;;;;8400650;28;20480;-81
2023/08/11 19:33:20;;;;;;;9.13;4.35;;;21.80;99.90;;;;;;8396366;28;20028;-82
2023/08/11 19:37:21;;;;;;;4.65;4.25;;;21.70;99.90;;;;;;8382297;28;20032;-80
2023/08/11 19:41:21;;;;;;;5.50;3.83;;;21.60;99.90;;;;;;8378363;28;20029;-80
2023/08/11 19:45:22;;;;;;;6.22;4.18;;;21.60;99.90;;;;;;8368851;28;20032;-81
2023/08/11 19:49:22;;;;;;;7.63;3.90;;;21.40;99.90;;;;;;8374732;28;20396;-81
2023/08/11 19:53:23;;;;;;;5.22;4.15;;;21.20;99.90;;;;;;8377139;28;20085;-80
2023/08/11 19:57:24;;;;;;;9.82;4.47;;;21.00;99.90;;;;;;8385462;28;20036;-81
2023/08/11 20:01:24;;;;;;;6.45;4.57;;;20.80;99.90;;;;;;8378690;28;20029;-80
2023/08/11 20:05:25;;;;;;;7.13;4.40;;;20.90;99.90;;;;;;8369369;28;20032;-82
2023/08/11 20:09:27;;;;;;;8.15;4.47;;;20.80;99.90;;;;;;8371780;28;20029;-81
2023/08/11 20:13:27;;;;;;;9.32;4.60;;;20.70;99.90;;;;;;8367105;28;20028;-81
2023/08/11 20:17:28;;;;;;;7.40;4.78;;;20.70;99.90;;;;;;8375846;28;20577;-82
2023/08/11 20:21:28;;;;;;;9.60;5.00;;;20.50;99.90;;;;;;8394514;28;20032;-81
2023/08/11 20:25:30;;;;;;;12.38;5.00;;;20.40;99.90;;;;;;8364629;28;20088;-81
2023/08/11 20:33:34;;;;;;;13.05;5.30;;;20.10;99.90;;;;;;8402164;28;20401;-79
2023/08/11 20:37:34;;;;;;;10.32;4.72;;;20.00;99.90;;;;;;8397437;28;20025;-79
2023/08/11 20:41:35;;;;;;;12.48;4.68;;;20.00;99.90;;;;;;8352280;28;20025;-79
2023/08/11 20:45:36;;;;;;;15.90;5.68;;;19.80;99.90;;;;;;8357675;28;20082;-80
2023/08/11 20:49:36;;;;;;;12.38;5.32;;;19.60;99.90;;;;;;8370826;28;20021;-80
2023/08/11 20:53:37;;;;;;;9.35;4.85;;;19.40;99.90;;;;;;8356822;28;20032;-79
2023/08/11 20:57:38;;;;;;;9.55;4.85;;;19.20;99.90;;;;;;8358661;28;20051;-80